Time;durP1;ratioP1;P1;durP2;ratioP2;P2;SDS_P1;SDS_P2;PMS_P1;PMS_P2;Temp;Humidity;BMP_temperature;BMP_pressure;BME280_temperature;BME280_humidity;BME280_pressure;Samples;Min_cycle;Max_cycle;Signal;HPM_P1;HPM_P2
2024/04/04 00:01:29;;;;;;;3.50;1.80;;;;;;;9.16;75.85;96228.00;108552;1275;22527;-72
2024/04/04 00:04:01;;;;;;;2.80;1.50;;;;;;;9.09;76.05;96230.80;108537;1273;22643;-73
2024/04/04 00:06:31;;;;;;;2.60;1.50;;;;;;;9.05;76.28;96230.12;108583;1268;22531;-73
2024/04/04 00:09:02;;;;;;;4.80;1.60;;;;;;;9.05;76.67;96227.84;108539;1274;22638;-73
2024/04/04 00:11:34;;;;;;;2.90;1.70;;;;;;;9.04;76.66;96224.36;108495;1270;22557;-73
2024/04/04 00:14:09;;;;;;;5.20;1.60;;;;;;;9.05;76.79;96223.61;108506;1267;22759;-73
2024/04/04 00:16:39;;;;;;;2.20;1.30;;;;;;;9.05;76.90;96224.46;108579;1267;22549;-73
2024/04/04 00:19:11;;;;;;;2.90;1.50;;;;;;;9.05;76.96;96222.17;108574;1267;22550;-73
2024/04/04 00:21:41;;;;;;;4.60;1.90;;;;;;;9.03;77.13;96220.09;108561;1275;22600;-73
2024/04/04 00:24:12;;;;;;;3.80;1.90;;;;;;;9.04;77.49;96214.95;108526;1275;22541;-73
2024/04/04 00:26:43;;;;;;;2.40;1.30;;;;;;;9.06;77.37;96214.23;108530;1270;22541;-73
2024/04/04 00:29:13;;;;;;;3.10;1.50;;;;;;;9.06;77.50;96213.23;108538;1275;22646;-73
2024/04/04 00:31:44;;;;;;;4.20;1.50;;;;;;;9.07;77.53;96212.52;108497;1269;22561;-73
2024/04/04 00:34:15;;;;;;;2.10;1.40;;;;;;;9.08;77.57;96213.63;108539;1269;23835;-73
2024/04/04 00:36:46;;;;;;;3.20;1.50;;;;;;;9.11;77.57;96213.13;108599;1270;22659;-73
2024/04/04 00:39:17;;;;;;;3.20;1.60;;;;;;;9.08;77.47;96214.38;108566;1273;24398;-73
2024/04/04 00:41:48;;;;;;;3.60;1.60;;;;;;;9.07;77.59;96214.60;108570;1266;25527;-73
2024/04/04 00:44:19;;;;;;;5.80;1.40;;;;;;;9.11;77.55;96211.74;108558;1275;22520;-73
2024/04/04 00:46:50;;;;;;;2.80;1.30;;;;;;;9.18;77.89;96210.96;108530;1269;22526;-73
2024/04/04 00:49:22;;;;;;;3.80;1.80;;;;;;;9.19;77.63;96211.95;108424;1269;22558;-73
2024/04/04 00:51:53;;;;;;;3.50;1.60;;;;;;;9.16;77.46;96213.36;108516;1269;25273;-72
2024/04/04 00:54:25;;;;;;;4.20;1.90;;;;;;;9.19;77.71;96213.27;108534;1275;25224;-73
2024/04/04 00:56:56;;;;;;;3.90;1.40;;;;;;;9.24;77.70;96215.02;108564;1275;22525;-73
2024/04/04 00:59:26;;;;;;;5.00;1.70;;;;;;;9.26;77.62;96213.58;108453;1275;22554;-73
2024/04/04 01:01:57;;;;;;;5.50;1.70;;;;;;;9.26;77.62;96215.58;108520;1268;23107;-73
2024/04/04 01:04:30;;;;;;;3.10;1.60;;;;;;;9.26;77.51;96211.13;108518;1275;24154;-73
2024/04/04 01:07:02;;;;;;;3.40;1.70;;;;;;;9.25;77.52;96210.88;108494;1272;22519;-73
2024/04/04 01:09:33;;;;;;;5.20;1.70;;;;;;;9.16;77.37;96208.90;108614;1275;22520;-73
2024/04/04 01:12:05;;;;;;;3.40;1.70;;;;;;;9.11;77.64;96211.11;108502;1275;22580;-73
2024/04/04 01:14:36;;;;;;;3.10;1.60;;;;;;;9.00;77.41;96218.77;108580;1275;22529;-73
2024/04/04 01:17:06;;;;;;;6.90;1.50;;;;;;;8.85;77.68;96216.14;108563;1275;22639;-73
2024/04/04 01:19:37;;;;;;;3.50;1.80;;;;;;;8.72;77.76;96211.27;108551;1269;24266;-73
2024/04/04 01:22:08;;;;;;;3.80;1.60;;;;;;;8.65;78.00;96209.70;108564;1275;26583;-73
2024/04/04 01:24:39;;;;;;;2.70;1.70;;;;;;;8.58;78.08;96212.37;108572;1275;24245;-73
2024/04/04 01:27:09;;;;;;;4.30;1.70;;;;;;;8.51;78.21;96211.84;108504;1275;22524;-72
2024/04/04 01:29:44;;;;;;;2.20;1.30;;;;;;;8.44;78.42;96207.34;108511;1275;22649;-73
2024/04/04 01:32:17;;;;;;;2.80;1.50;;;;;;;8.40;78.63;96207.31;108498;1275;25240;-73
2024/04/04 01:34:47;;;;;;;2.20;1.10;;;;;;;8.33;78.90;96202.95;108501;1275;22555;-73
2024/04/04 01:37:18;;;;;;;2.90;1.50;;;;;;;8.28;79.25;96202.33;108585;1269;22534;-73
2024/04/04 01:39:49;;;;;;;2.40;1.30;;;;;;;8.27;79.44;96200.43;108555;1275;22564;-73
2024/04/04 01:42:19;;;;;;;2.50;1.60;;;;;;;8.23;79.63;96202.20;108516;1275;22534;-73
2024/04/04 01:44:50;;;;;;;2.50;1.50;;;;;;;8.21;79.89;96201.33;108548;1275;25424;-73
2024/04/04 01:47:21;;;;;;;4.00;1.60;;;;;;;8.18;80.08;96200.87;108522;1275;22523;-73
2024/04/04 01:49:52;;;;;;;3.20;1.30;;;;;;;8.16;80.17;96199.76;108571;1272;25286;-72
2024/04/04 01:52:24;;;;;;;3.90;1.60;;;;;;;8.15;80.56;96201.02;108526;1275;22521;-74
2024/04/04 01:54:55;;;;;;;2.10;1.50;;;;;;;8.14;80.60;96198.81;108438;1269;129369;-72
2024/04/04 01:57:25;;;;;;;4.00;1.80;;;;;;;8.15;80.73;96200.39;108516;1275;22572;-73
2024/04/04 01:59:56;;;;;;;5.30;1.70;;;;;;;8.16;80.78;96200.33;108471;1276;22529;-73
2024/04/04 02:02:28;;;;;;;2.50;1.30;;;;;;;8.18;80.78;96198.86;108543;1268;23268;-73
2024/04/04 02:05:01;;;;;;;3.10;1.40;;;;;;;8.20;80.96;96200.80;108517;1272;22526;-73
2024/04/04 02:07:35;;;;;;;2.00;1.30;;;;;;;8.22;81.09;96204.60;108611;1275;22548;-72
2024/04/04 02:10:07;;;;;;;2.40;1.50;;;;;;;8.26;81.33;96203.61;108578;1268;22527;-73
2024/04/04 02:12:38;;;;;;;2.60;1.40;;;;;;;8.33;81.40;96202.27;108529;1275;22527;-73
2024/04/04 02:15:09;;;;;;;1.70;1.20;;;;;;;8.42;81.51;96205.08;108608;1268;22526;-73
2024/04/04 02:17:41;;;;;;;2.60;1.40;;;;;;;8.51;81.28;96205.23;108507;1275;24194;-73
2024/04/04 02:20:15;;;;;;;2.80;1.20;;;;;;;8.56;80.95;96206.46;108477;1275;22525;-73
2024/04/04 02:22:49;;;;;;;3.20;1.60;;;;;;;8.62;80.92;96210.92;108454;1275;22585;-73
2024/04/04 02:25:20;;;;;;;3.20;1.30;;;;;;;8.65;80.80;96211.44;108549;1275;22554;-73
2024/04/04 02:27:51;;;;;;;5.20;1.50;;;;;;;8.69;80.70;96209.91;108575;1272;24280;-73
2024/04/04 02:30:21;;;;;;;2.20;1.20;;;;;;;8.74;80.75;96207.67;108481;1269;22522;-73
2024/04/04 02:32:52;;;;;;;3.70;1.40;;;;;;;8.76;80.55;96204.22;108509;1275;22640;-73
2024/04/04 02:35:24;;;;;;;3.70;1.30;;;;;;;8.79;80.39;96205.98;108530;1275;22566;-73
2024/04/04 02:37:54;;;;;;;2.00;1.10;;;;;;;8.80;80.12;96205.83;108576;1268;22527;-73
2024/04/04 02:40:26;;;;;;;2.50;1.30;;;;;;;8.74;80.01;96204.40;108519;1275;23317;-73
2024/04/04 02:42:57;;;;;;;3.20;1.40;;;;;;;8.68;79.78;96202.36;108478;1275;22548;-73
2024/04/04 02:45:29;;;;;;;2.90;1.30;;;;;;;8.61;79.90;96203.27;108594;1268;22622;-72
2024/04/04 02:48:01;;;;;;;4.60;1.20;;;;;;;8.55;80.05;96198.43;108628;1275;22529;-72
2024/04/04 02:50:32;;;;;;;2.80;1.40;;;;;;;8.50;80.22;96199.43;108538;1268;22535;-73
2024/04/04 02:53:03;;;;;;;3.30;1.20;;;;;;;8.46;80.35;96202.69;108516;1275;22537;-72
2024/04/04 02:55:34;;;;;;;1.30;1.20;;;;;;;8.44;80.53;96198.94;108489;1275;22720;-73
2024/04/04 02:58:05;;;;;;;2.50;1.20;;;;;;;8.45;80.90;96201.54;108599;1275;22657;-72
2024/04/04 03:00:37;;;;;;;2.00;1.00;;;;;;;8.48;80.92;96200.88;108578;1269;22513;-73
2024/04/04 03:03:09;;;;;;;2.80;1.40;;;;;;;8.51;80.91;96195.89;108532;1268;25409;-72
2024/04/04 03:05:42;;;;;;;2.60;1.20;;;;;;;8.49;80.58;96196.59;108561;1275;24286;-72
2024/04/04 03:08:15;;;;;;;3.90;1.40;;;;;;;8.48;80.68;96199.23;108499;1268;22543;-73
2024/04/04 03:10:46;;;;;;;2.00;1.20;;;;;;;8.46;81.00;96197.45;108531;1275;22522;-73
2024/04/04 03:13:16;;;;;;;3.20;1.40;;;;;;;8.49;81.12;96200.18;108521;1268;22545;-73
2024/04/04 03:15:57;;;;;;;5.10;1.50;;;;;;;8.51;81.07;96199.80;108561;1272;22525;-73
2024/04/04 03:18:28;;;;;;;2.30;1.30;;;;;;;8.50;81.04;96198.96;108520;1275;22596;-72
2024/04/04 03:20:59;;;;;;;2.40;1.30;;;;;;;8.50;81.21;96201.77;108521;1275;22528;-73
2024/04/04 03:23:29;;;;;;;1.60;1.20;;;;;;;8.51;81.41;96201.06;108493;1275;25494;-73
2024/04/04 03:26:00;;;;;;;2.90;1.10;;;;;;;8.50;81.33;96196.95;108585;1275;22640;-73
2024/04/04 03:28:30;;;;;;;2.70;1.50;;;;;;;8.51;81.55;96198.20;108613;1275;25297;-72
2024/04/04 03:31:01;;;;;;;4.10;1.50;;;;;;;8.54;81.52;96199.13;108513;1275;22529;-72
2024/04/04 03:33:32;;;;;;;2.50;1.50;;;;;;;8.53;81.63;96196.34;108527;1269;22552;-73
2024/04/04 03:36:05;;;;;;;4.50;1.40;;;;;;;8.52;81.57;96199.05;108571;1275;22523;-72
2024/04/04 03:38:36;;;;;;;2.90;1.30;;;;;;;8.51;81.80;96202.23;108590;1275;25270;-72
2024/04/04 03:41:07;;;;;;;5.50;2.10;;;;;;;8.52;81.92;96203.59;108558;1269;22523;-73
2024/04/04 03:43:37;;;;;;;2.40;1.00;;;;;;;8.55;82.05;96203.73;108496;1275;22548;-73
2024/04/04 03:46:08;;;;;;;2.00;0.90;;;;;;;8.58;82.11;96205.70;108529;1269;22630;-72
2024/04/04 03:48:39;;;;;;;2.70;1.00;;;;;;;8.61;82.26;96207.55;108572;1272;22546;-73
2024/04/04 03:51:10;;;;;;;1.90;1.00;;;;;;;8.63;82.21;96210.39;108542;1275;22641;-72
2024/04/04 03:53:40;;;;;;;3.00;1.30;;;;;;;8.65;82.16;96213.50;108525;1275;23479;-73
2024/04/04 03:56:11;;;;;;;1.80;1.00;;;;;;;8.66;82.23;96216.29;108507;1272;22536;-73
2024/04/04 03:58:41;;;;;;;1.60;0.90;;;;;;;8.66;81.96;96215.48;108516;1273;22568;-73
2024/04/04 04:01:12;;;;;;;2.30;1.10;;;;;;;8.67;81.93;96220.03;108462;1274;25348;-73
2024/04/04 04:03:43;;;;;;;1.50;1.10;;;;;;;8.67;81.92;96218.70;108518;1275;22519;-73
2024/04/04 04:06:13;;;;;;;2.50;1.00;;;;;;;8.67;81.95;96218.39;108525;1275;22519;-73
2024/04/04 04:08:44;;;;;;;2.00;1.10;;;;;;;8.67;82.00;96217.34;108561;1275;23030;-73
2024/04/04 04:11:14;;;;;;;3.30;1.30;;;;;;;8.67;81.92;96215.84;108546;1275;22638;-73
2024/04/04 04:13:47;;;;;;;2.90;1.10;;;;;;;8.69;81.97;96218.64;108487;1256;24323;-73
2024/04/04 04:16:18;;;;;;;1.90;1.00;;;;;;;8.68;81.96;96219.75;108546;1275;23078;-73
2024/04/04 04:18:51;;;;;;;2.10;1.10;;;;;;;8.68;81.88;96221.60;108568;1275;22522;-73
2024/04/04 04:21:24;;;;;;;1.20;0.80;;;;;;;8.70;82.00;96223.92;108512;1275;23203;-73
2024/04/04 04:23:58;;;;;;;3.30;1.00;;;;;;;8.70;81.78;96226.29;108488;1272;22519;-73
2024/04/04 04:26:30;;;;;;;2.80;1.10;;;;;;;8.72;81.86;96225.42;108526;1269;22556;-73
2024/04/04 04:29:04;;;;;;;2.50;0.90;;;;;;;8.73;81.97;96230.20;108507;1275;22943;-72
2024/04/04 04:31:36;;;;;;;2.40;1.00;;;;;;;8.73;81.79;96229.20;108552;1274;22543;-72
2024/04/04 04:34:08;;;;;;;2.60;1.10;;;;;;;8.72;81.87;96233.52;108518;1275;26586;-72
2024/04/04 04:36:54;;;;;;;1.40;1.00;;;;;;;8.72;81.93;96233.46;108541;1275;23492;-73
2024/04/04 04:39:26;;;;;;;1.20;0.90;;;;;;;8.73;81.89;96232.84;108540;1275;23249;-72
2024/04/04 04:41:57;;;;;;;1.30;0.70;;;;;;;8.74;81.82;96230.14;108582;1275;22562;-73
2024/04/04 04:44:27;;;;;;;1.10;0.80;;;;;;;8.73;81.80;96229.41;108568;1268;22550;-73
2024/04/04 04:46:58;;;;;;;1.20;0.80;;;;;;;8.72;81.93;96231.41;108547;1272;22555;-73
2024/04/04 04:49:29;;;;;;;2.00;1.10;;;;;;;8.71;82.18;96235.27;108434;1275;22621;-73
2024/04/04 04:51:59;;;;;;;2.70;1.00;;;;;;;8.73;82.17;96239.86;108525;1275;22582;-73
2024/04/04 04:54:30;;;;;;;2.20;1.30;;;;;;;8.78;82.08;96243.95;108549;1268;23053;-73
2024/04/04 04:57:01;;;;;;;1.60;0.90;;;;;;;8.80;82.02;96244.30;108581;1275;22652;-73
2024/04/04 04:59:32;;;;;;;2.50;0.90;;;;;;;8.84;81.94;96248.66;108576;1275;22565;-73
2024/04/04 05:02:03;;;;;;;2.60;1.20;;;;;;;8.88;81.91;96250.75;108534;1275;22586;-73
2024/04/04 05:04:40;;;;;;;4.00;1.00;;;;;;;8.95;81.84;96255.52;108430;1268;22547;-73
2024/04/04 05:07:11;;;;;;;3.10;1.00;;;;;;;9.01;81.78;96260.33;108433;1276;22515;-73
2024/04/04 05:09:42;;;;;;;1.90;1.00;;;;;;;9.05;81.63;96260.67;108482;1276;22583;-73
2024/04/04 05:12:13;;;;;;;1.90;0.90;;;;;;;9.10;81.57;96266.60;108413;1269;22526;-73
2024/04/04 05:14:43;;;;;;;1.40;0.70;;;;;;;9.13;81.34;96265.20;108556;1275;23067;-73
2024/04/04 05:17:14;;;;;;;2.50;1.10;;;;;;;9.16;81.25;96264.88;108573;1275;24298;-73
2024/04/04 05:19:44;;;;;;;1.80;0.70;;;;;;;9.18;81.09;96263.16;108486;1272;25903;-73
2024/04/04 05:22:15;;;;;;;2.50;1.00;;;;;;;9.27;81.04;96259.75;108523;1275;22543;-73
2024/04/04 05:24:46;;;;;;;2.50;0.90;;;;;;;9.37;80.94;96261.30;108521;1272;25414;-73
2024/04/04 05:27:17;;;;;;;0.90;0.70;;;;;;;9.45;80.84;96259.53;108538;1275;22533;-73
2024/04/04 05:29:47;;;;;;;1.60;1.00;;;;;;;9.55;80.55;96257.52;108462;1275;24244;-73
2024/04/04 05:32:18;;;;;;;2.60;0.80;;;;;;;9.67;80.49;96261.59;108485;1268;22560;-73
2024/04/04 05:34:50;;;;;;;1.90;0.90;;;;;;;9.75;80.18;96258.45;108543;1268;22536;-73
2024/04/04 05:37:21;;;;;;;2.60;0.80;;;;;;;9.85;80.30;96260.25;108592;1268;22522;-73
2024/04/04 05:39:51;;;;;;;1.30;0.80;;;;;;;10.00;80.06;96261.08;108539;1269;22584;-73
2024/04/04 05:42:22;;;;;;;1.80;0.80;;;;;;;10.16;79.82;96261.48;108509;1275;24509;-74
2024/04/04 05:44:53;;;;;;;3.60;1.60;;;;;;;10.35;79.53;96268.65;108472;1275;22525;-73
2024/04/04 05:47:24;;;;;;;2.90;0.90;;;;;;;10.50;78.98;96263.23;108546;1275;22763;-73
2024/04/04 05:49:54;;;;;;;1.60;0.80;;;;;;;10.54;78.50;96261.43;108482;1275;26522;-73
2024/04/04 05:52:25;;;;;;;1.20;0.90;;;;;;;10.49;78.03;96266.55;108524;1268;22546;-73
2024/04/04 05:54:56;;;;;;;1.90;0.70;;;;;;;10.49;77.89;96262.88;108499;1275;22515;-73
2024/04/04 05:57:28;;;;;;;1.20;0.60;;;;;;;10.49;77.66;96261.66;108484;1275;22618;-73
2024/04/04 05:59:59;;;;;;;2.60;1.00;;;;;;;10.52;77.48;96265.22;108529;1275;22546;-73
2024/04/04 06:02:30;;;;;;;2.60;0.90;;;;;;;10.50;77.10;96264.84;108567;1272;23694;-74
2024/04/04 06:05:04;;;;;;;2.00;0.80;;;;;;;10.55;77.03;96266.30;108457;1275;22526;-73
2024/04/04 06:07:36;;;;;;;2.30;0.80;;;;;;;10.68;76.96;96271.27;108607;1275;25413;-73
2024/04/04 06:10:09;;;;;;;1.10;0.70;;;;;;;10.84;76.70;96274.55;108534;1275;25521;-73
2024/04/04 06:12:39;;;;;;;1.90;0.70;;;;;;;10.96;76.37;96275.84;108539;1272;22666;-73
2024/04/04 06:15:10;;;;;;;2.20;0.80;;;;;;;11.06;76.09;96279.62;108536;1269;22553;-73
2024/04/04 06:17:41;;;;;;;2.10;1.10;;;;;;;11.42;76.51;96287.49;108586;1272;22549;-74
2024/04/04 06:20:15;;;;;;;2.20;0.90;;;;;;;11.97;75.45;96285.39;108516;1275;22579;-73
2024/04/04 06:22:45;;;;;;;2.40;1.10;;;;;;;12.23;74.92;96283.66;108458;1268;22546;-74
2024/04/04 06:25:16;;;;;;;3.20;1.10;;;;;;;12.81;74.23;96278.60;108579;1275;22533;-73
2024/04/04 06:27:51;;;;;;;2.90;1.60;;;;;;;13.30;73.57;96275.02;108543;1268;22543;-73
2024/04/04 06:30:22;;;;;;;2.20;1.20;;;;;;;14.24;73.26;96272.65;108583;1269;22538;-73
2024/04/04 06:32:53;;;;;;;1.60;1.20;;;;;;;15.31;72.05;96277.17;108495;1269;24218;-74
2024/04/04 06:35:24;;;;;;;2.90;1.20;;;;;;;16.61;70.65;96277.51;108503;1272;22581;-74
2024/04/04 06:37:54;;;;;;;2.40;1.30;;;;;;;18.00;68.35;96275.10;108504;1275;22561;-73
2024/04/04 06:40:26;;;;;;;2.00;1.40;;;;;;;19.18;65.32;96274.03;108523;1268;25343;-73
2024/04/04 06:42:57;;;;;;;2.80;1.50;;;;;;;20.35;63.52;96273.83;108555;1269;22564;-73
2024/04/04 06:45:28;;;;;;;2.70;1.20;;;;;;;21.18;61.08;96272.45;108566;1272;22642;-75
2024/04/04 06:48:00;;;;;;;3.20;1.40;;;;;;;21.26;58.00;96274.79;108466;1268;22526;-75
2024/04/04 06:50:31;;;;;;;2.80;1.10;;;;;;;21.21;57.69;96275.82;108576;1275;22548;-75
2024/04/04 06:53:03;;;;;;;1.30;1.00;;;;;;;21.75;57.40;96276.02;108529;1268;22532;-75
2024/04/04 06:55:33;;;;;;;2.60;1.30;;;;;;;22.78;56.25;96277.02;108552;1275;22529;-75
2024/04/04 06:58:04;;;;;;;3.00;1.50;;;;;;;23.39;53.45;96281.14;108553;1275;22535;-76
2024/04/04 07:00:35;;;;;;;4.90;2.00;;;;;;;22.99;50.42;96283.99;108546;1275;22633;-76
2024/04/04 07:03:14;;;;;;;3.50;2.20;;;;;;;21.32;50.12;96281.89;108467;1268;23957;-76
2024/04/04 07:05:44;;;;;;;3.60;1.80;;;;;;;20.53;51.02;96286.59;108591;1275;22518;-75
2024/04/04 07:08:15;;;;;;;3.10;1.50;;;;;;;19.85;50.62;96286.29;108564;1275;22555;-75
2024/04/04 07:10:46;;;;;;;3.00;1.20;;;;;;;18.92;50.80;96293.33;108550;1275;22530;-75
2024/04/04 07:13:20;;;;;;;2.20;1.00;;;;;;;18.28;51.24;96298.27;108530;1275;22698;-75
2024/04/04 07:16:00;;;;;;;3.50;1.50;;;;;;;17.65;51.50;96296.91;108576;1273;22605;-75
2024/04/04 07:18:32;;;;;;;5.20;2.00;;;;;;;16.94;51.48;96294.61;108550;1275;24283;-75
2024/04/04 07:21:06;;;;;;;2.40;1.40;;;;;;;16.43;52.71;96293.79;108634;1268;22561;-75
2024/04/04 07:23:37;;;;;;;1.70;0.80;;;;;;;16.18;53.05;96301.43;108718;1272;23357;-74
2024/04/04 07:26:07;;;;;;;1.50;0.70;;;;;;;15.86;53.22;96301.86;108625;1268;26426;-74
2024/04/04 07:28:38;;;;;;;1.70;0.70;;;;;;;15.44;53.38;96303.61;108460;1268;22522;-74
2024/04/04 07:31:09;;;;;;;3.90;1.20;;;;;;;15.05;54.00;96303.63;108690;1268;22522;-74
2024/04/04 07:33:40;;;;;;;2.60;1.40;;;;;;;14.87;54.72;96302.84;108672;1275;22601;-74
2024/04/04 07:36:11;;;;;;;2.40;1.40;;;;;;;14.87;54.95;96304.75;108725;1272;22544;-74
2024/04/04 07:38:41;;;;;;;1.70;1.00;;;;;;;15.08;55.76;96303.70;108594;1272;22532;-75
2024/04/04 07:41:20;;;;;;;2.60;0.90;;;;;;;16.31;54.82;96302.26;108447;1268;22602;-75
2024/04/04 07:43:51;;;;;;;2.50;1.00;;;;;;;16.41;54.47;96303.88;108519;1275;22530;-75
2024/04/04 07:46:21;;;;;;;2.50;1.40;;;;;;;17.06;54.10;96307.60;108555;1271;22581;-75
2024/04/04 07:48:53;;;;;;;2.10;1.00;;;;;;;17.31;53.33;96309.58;108555;1275;22523;-75
2024/04/04 07:51:26;;;;;;;1.80;0.70;;;;;;;17.69;53.11;96307.91;108580;1269;22532;-74
2024/04/04 07:54:01;;;;;;;1.40;0.80;;;;;;;18.10;51.47;96307.56;108584;1269;24640;-74
2024/04/04 07:56:34;;;;;;;1.60;0.90;;;;;;;18.29;51.85;96307.34;108602;1271;23427;-74
2024/04/04 07:59:13;;;;;;;2.00;0.90;;;;;;;19.91;52.29;96299.29;108584;1261;22526;-74
2024/04/04 08:01:44;;;;;;;1.30;0.90;;;;;;;21.89;47.93;96297.86;108590;1272;22545;-74
2024/04/04 08:04:15;;;;;;;10.50;7.80;;;;;;;22.96;47.20;96299.95;108428;1275;25014;-74
2024/04/04 08:06:46;;;;;;;1.80;1.40;;;;;;;23.93;45.89;96300.96;108444;1276;22548;-74
2024/04/04 08:09:17;;;;;;;1.40;0.60;;;;;;;25.33;43.17;96291.02;108457;1276;26525;-74
2024/04/04 08:12:02;;;;;;;3.10;1.20;;;;;;;24.44;37.67;96294.63;108440;1268;25374;-75
2024/04/04 08:14:33;;;;;;;3.90;2.50;;;;;;;23.37;39.36;96297.42;108537;1268;22525;-73
2024/04/04 08:17:04;;;;;;;4.60;2.40;;;;;;;23.99;40.81;96297.56;108548;1273;22644;-74
2024/04/04 08:19:37;;;;;;;3.40;1.60;;;;;;;25.37;40.67;96294.44;108518;1268;22542;-74
2024/04/04 08:22:10;;;;;;;3.70;2.10;;;;;;;25.49;36.38;96296.11;108287;1265;24489;-74
2024/04/04 08:24:47;;;;;;;2.60;1.60;;;;;;;23.25;35.01;96288.70;108284;1272;22536;-74
2024/04/04 08:27:21;;;;;;;2.70;1.40;;;;;;;20.34;37.79;96297.42;108416;1275;22688;-75
2024/04/04 08:30:05;;;;;;;1.30;0.60;;;;;;;21.00;40.40;96289.39;108400;1272;23034;-74
2024/04/04 08:32:44;;;;;;;1.40;0.70;;;;;;;21.09;39.89;96287.58;108455;1268;24798;-74
2024/04/04 08:35:18;;;;;;;1.60;0.80;;;;;;;20.02;40.05;96284.27;108574;1274;24389;-74
2024/04/04 08:38:00;;;;;;;4.80;2.00;;;;;;;19.41;40.30;96287.73;108565;1274;22610;-74
2024/04/04 08:40:39;;;;;;;2.00;1.20;;;;;;;19.28;41.97;96291.50;108665;1274;22631;-74
2024/04/04 08:43:12;;;;;;;2.30;0.80;;;;;;;18.69;41.05;96292.75;108474;1269;22945;-74
2024/04/04 08:45:58;;;;;;;0.90;0.50;;;;;;;18.49;42.41;96286.78;108271;1268;22536;-74
2024/04/04 08:48:29;;;;;;;1.20;0.70;;;;;;;17.96;42.02;96282.15;108431;1268;22650;-74
2024/04/04 08:51:03;;;;;;;1.80;0.80;;;;;;;17.32;43.59;96288.47;108447;1276;22548;-74
2024/04/04 08:53:34;;;;;;;10.50;4.50;;;;;;;17.06;44.41;96282.41;108525;1274;22526;-75
2024/04/04 08:56:07;;;;;;;1.70;1.00;;;;;;;16.38;44.77;96280.13;108607;1273;25446;-74
2024/04/04 08:58:38;;;;;;;1.50;0.50;;;;;;;15.60;45.74;96282.47;108594;1272;22534;-74
2024/04/04 09:01:12;;;;;;;2.90;1.30;;;;;;;15.18;46.79;96285.86;108574;1272;22515;-74
2024/04/04 09:03:49;;;;;;;1.00;0.60;;;;;;;14.95;47.68;96289.48;108590;1274;22569;-74
2024/04/04 09:06:27;;;;;;;3.00;1.00;;;;;;;14.77;48.09;96282.98;108618;1274;22555;-74
2024/04/04 09:09:00;;;;;;;5.50;0.80;;;;;;;14.82;49.02;96281.80;108618;1274;24244;-74
2024/04/04 09:11:36;;;;;;;1.20;0.60;;;;;;;15.56;49.36;96283.73;108564;1269;22522;-74
2024/04/04 09:14:11;;;;;;;1.80;0.30;;;;;;;16.20;48.56;96280.27;108531;1269;22594;-74
2024/04/04 09:16:46;;;;;;;1.20;0.40;;;;;;;16.44;48.57;96286.33;108571;1268;22533;-74
2024/04/04 09:19:20;;;;;;;2.10;0.50;;;;;;;16.74;48.01;96287.18;108552;1275;22523;-74
2024/04/04 09:21:52;;;;;;;2.20;0.50;;;;;;;16.97;47.69;96282.89;108550;1275;22535;-74
2024/04/04 09:24:26;;;;;;;0.90;0.40;;;;;;;17.13;47.64;96280.83;108540;1275;22534;-74
2024/04/04 09:27:00;;;;;;;1.80;0.50;;;;;;;17.01;46.83;96282.69;108537;1268;25299;-75
2024/04/04 09:29:34;;;;;;;1.00;0.40;;;;;;;16.73;46.91;96281.96;108557;1268;25522;-74
2024/04/04 09:32:07;;;;;;;2.20;0.70;;;;;;;16.30;46.41;96285.77;108520;1275;22554;-74
2024/04/04 09:34:42;;;;;;;2.10;0.90;;;;;;;15.79;46.85;96288.39;108589;1275;24242;-74
2024/04/04 09:37:17;;;;;;;10.60;5.10;;;;;;;15.35;47.48;96295.05;108560;1275;22537;-74
2024/04/04 09:39:55;;;;;;;3.80;1.50;;;;;;;14.96;47.70;96292.27;108525;1268;25329;-74
2024/04/04 09:42:30;;;;;;;6.60;3.60;;;;;;;14.67;47.93;96297.77;108508;1275;25550;-74
2024/04/04 09:45:01;;;;;;;3.40;0.80;;;;;;;14.59;48.60;96301.27;108514;1268;22577;-74
2024/04/04 09:47:33;;;;;;;4.30;2.00;;;;;;;14.58;48.88;96302.14;108507;1268;22575;-74
2024/04/04 09:50:04;;;;;;;1.30;0.60;;;;;;;14.49;48.92;96304.91;108559;1269;22551;-75
2024/04/04 09:52:37;;;;;;;3.20;1.80;;;;;;;14.39;49.22;96300.63;108417;1269;24264;-75
2024/04/04 09:55:11;;;;;;;2.70;1.10;;;;;;;14.34;49.90;96309.29;108399;1268;22541;-74
2024/04/04 09:57:45;;;;;;;1.80;0.70;;;;;;;14.42;50.12;96304.80;108311;1274;22634;-75
2024/04/04 10:00:18;;;;;;;1.90;0.80;;;;;;;14.60;50.39;96307.79;108390;1271;22522;-75
2024/04/04 10:02:54;;;;;;;1.60;0.70;;;;;;;14.68;50.31;96307.48;109536;1275;22607;-75
2024/04/04 10:05:35;;;;;;;1.60;0.70;;;;;;;14.70;50.24;96307.40;108618;1275;24028;-75
2024/04/04 10:08:17;;;;;;;7.90;3.20;;;;;;;14.66;50.40;96305.33;108544;1275;22496;-75
2024/04/04 10:10:48;;;;;;;1.70;0.80;;;;;;;14.62;50.91;96303.30;108477;1275;22573;-75
2024/04/04 10:13:21;;;;;;;4.30;1.40;;;;;;;14.66;51.18;96300.27;108492;1274;23249;-74
2024/04/04 10:15:52;;;;;;;2.10;0.80;;;;;;;15.02;51.83;96299.45;108592;1269;22990;-75
2024/04/04 10:18:23;;;;;;;1.50;0.80;;;;;;;15.24;51.10;96295.73;108472;1269;22525;-75
2024/04/04 10:20:55;;;;;;;1.80;0.90;;;;;;;15.13;50.77;96302.09;108546;1275;22642;-75
2024/04/04 10:23:29;;;;;;;1.80;0.60;;;;;;;15.21;50.97;96303.08;108630;1275;25222;-75
2024/04/04 10:26:09;;;;;;;3.40;0.90;;;;;;;15.04;50.55;96301.91;108554;1275;22524;-75
2024/04/04 10:28:45;;;;;;;2.20;1.40;;;;;;;14.69;51.08;96319.20;108555;1272;22558;-75
2024/04/04 10:31:15;;;;;;;4.00;2.20;;;;;;;14.49;51.41;96319.25;108436;1268;23752;-75
2024/04/04 10:33:46;;;;;;;2.10;1.00;;;;;;;14.42;51.92;96322.98;108405;1276;22551;-75
2024/04/04 10:36:16;;;;;;;3.30;0.80;;;;;;;14.38;52.01;96322.14;108517;1276;22555;-75
2024/04/04 10:38:47;;;;;;;5.80;2.70;;;;;;;14.18;51.98;96329.62;108489;1276;22536;-75
2024/04/04 10:41:18;;;;;;;2.90;1.50;;;;;;;14.10;52.74;96330.01;108497;1276;24320;-75
2024/04/04 10:43:48;;;;;;;4.40;1.70;;;;;;;14.07;53.37;96326.97;108455;1276;25553;-75
2024/04/04 10:46:19;;;;;;;1.60;0.90;;;;;;;14.06;53.60;96327.96;108440;1276;25448;-75
2024/04/04 10:48:51;;;;;;;2.50;1.30;;;;;;;14.05;53.65;96339.59;108483;1272;22924;-75
2024/04/04 10:51:21;;;;;;;2.70;1.40;;;;;;;14.13;53.60;96343.13;108498;1276;25338;-75
2024/04/04 10:53:52;;;;;;;2.10;0.90;;;;;;;14.29;53.64;96342.34;108188;1270;22565;-75
2024/04/04 10:56:23;;;;;;;2.10;0.80;;;;;;;14.50;53.74;96340.94;108505;1276;24254;-75
2024/04/04 10:58:54;;;;;;;1.30;0.50;;;;;;;14.69;53.63;96346.23;108498;1276;22528;-75
2024/04/04 11:01:25;;;;;;;2.40;1.40;;;;;;;14.76;53.06;96344.77;108479;1274;25404;-76
2024/04/04 11:03:56;;;;;;;2.10;1.10;;;;;;;14.69;52.72;96341.69;108500;1269;22568;-74
2024/04/04 11:06:29;;;;;;;3.60;1.70;;;;;;;14.69;53.09;96334.21;108558;1273;22519;-75
2024/04/04 11:09:04;;;;;;;1.60;0.90;;;;;;;14.71;53.14;96334.77;108570;1275;22521;-75
2024/04/04 11:11:35;;;;;;;10.80;4.40;;;;;;;14.72;52.97;96332.52;108544;1272;22536;-74
2024/04/04 11:14:06;;;;;;;3.20;0.80;;;;;;;14.73;53.38;96332.42;108355;1275;24228;-74
2024/04/04 11:16:38;;;;;;;5.00;2.50;;;;;;;14.78;53.34;96333.19;108577;1275;22668;-74
2024/04/04 11:19:10;;;;;;;1.80;0.90;;;;;;;14.97;53.44;96332.11;108521;1268;22638;-75
2024/04/04 11:21:41;;;;;;;6.00;3.70;;;;;;;15.05;53.10;96333.02;108568;1265;22544;-75
2024/04/04 11:24:11;;;;;;;4.40;2.20;;;;;;;15.10;53.00;96333.58;108447;1271;23060;-75
2024/04/04 11:26:42;;;;;;;2.10;0.90;;;;;;;15.11;53.11;96333.20;108427;1265;24220;-75
2024/04/04 11:29:14;;;;;;;2.40;1.10;;;;;;;15.42;53.78;96333.66;108520;1269;22526;-75
2024/04/04 11:31:45;;;;;;;2.10;0.90;;;;;;;15.84;53.38;96329.45;108384;1272;23436;-75
2024/04/04 11:34:16;;;;;;;1.90;0.90;;;;;;;16.01;52.19;96327.80;108077;1269;22985;-75
2024/04/04 11:36:47;;;;;;;3.30;1.30;;;;;;;15.88;51.37;96328.41;108112;1276;22534;-75
2024/04/04 11:39:17;;;;;;;3.60;2.10;;;;;;;15.64;51.12;96327.39;108327;1276;22526;-75
2024/04/04 11:41:50;;;;;;;2.30;1.00;;;;;;;15.64;51.50;96324.34;108123;1276;22581;-75
2024/04/04 11:44:21;;;;;;;1.80;0.80;;;;;;;15.40;50.90;96323.67;108233;1269;22523;-75
2024/04/04 11:46:54;;;;;;;0.60;0.60;;;;;;;15.31;51.31;96328.67;108482;1272;22527;-76
2024/04/04 11:49:29;;;;;;;1.70;1.10;;;;;;;15.44;51.39;96323.17;108472;1269;24748;-75
2024/04/04 11:52:00;;;;;;;1.20;0.50;;;;;;;15.53;51.00;96330.77;108488;1275;25318;-75